Maulden, Kentucky
Current Conditions -  °F | °C
As of 4:53 PM on Saturday 25 Oct 2014 (Local Time) from KLOZ Reporting Station
Broken Clouds Broken Clouds  
Wind Chill: 69°   Ceiling: 4100
Heat Index: 69°   Visibility: 10mi
Dew Point: 53°   Wind: 9mph
Humidity: 57%   Direction: 250°WSW
Pressure: 30.01"   Gusts: NA
Location:  37.346°N, 83.8503°W
Report Text: KLOZ 252053Z AUTO 25008KT 10SM BKN041 21/12 A3001 RMK AO2 SLP157 T02060117 55013
Loading
Personal Weather Stations






























Interactive Weather Map New forecast layout! Learn more

10-Day Weather Forecast

Advertisements
Track Severe Weather on mobile